Time;durP1;ratioP1;P1;durP2;ratioP2;P2;SDS_P1;SDS_P2;PMS_P1;PMS_P2;Temp;Humidity;BMP_temperature;BMP_pressure;BME280_temperature;BME280_humidity;BME280_pressure;Samples;Min_cycle;Max_cycle;Signal;HPM_P1;HPM_P2
2021/06/22 00:00:26;;;;;;;770.05;725.03;;;;;;;19.67;100.00;97676.88;5028330;28;20064;-62
2021/06/22 00:02:52;;;;;;;855.80;799.70;;;;;;;19.66;100.00;97688.22;5026901;28;20032;-62
2021/06/22 00:05:19;;;;;;;785.33;723.78;;;;;;;19.61;100.00;97683.34;5029253;28;20025;-62
2021/06/22 00:07:46;;;;;;;689.63;649.42;;;;;;;19.60;100.00;97686.91;5028691;28;20026;-62
2021/06/22 00:10:13;;;;;;;689.28;648.60;;;;;;;19.60;100.00;97689.50;5034443;28;20104;-62
2021/06/22 00:12:38;;;;;;;630.53;593.28;;;;;;;19.57;100.00;97681.88;5020214;28;20021;-62
2021/06/22 00:15:05;;;;;;;654.45;616.03;;;;;;;19.56;100.00;97698.44;5029177;28;20087;-62
2021/06/22 00:17:31;;;;;;;553.83;522.17;;;;;;;19.53;100.00;97709.03;5025186;28;20057;-62
2021/06/22 00:19:56;;;;;;;501.75;473.98;;;;;;;19.52;100.00;97718.59;5032505;28;20100;-62
2021/06/22 00:22:22;;;;;;;492.70;465.65;;;;;;;19.50;100.00;97717.91;5027062;28;20109;-62
2021/06/22 00:24:48;;;;;;;504.80;476.55;;;;;;;19.55;100.00;97720.19;5027611;28;20429;-62
2021/06/22 00:27:13;;;;;;;524.20;494.45;;;;;;;19.49;100.00;97720.59;5016180;28;20438;-62
2021/06/22 00:29:43;;;;;;;536.05;505.83;;;;;;;19.54;100.00;97721.94;5028090;28;20029;-62
2021/06/22 00:32:10;;;;;;;594.60;560.72;;;;;;;19.46;100.00;97719.06;5015949;28;20025;-62
2021/06/22 00:34:36;;;;;;;699.65;658.53;;;;;;;19.43;100.00;97711.47;5028999;28;20053;-62
2021/06/22 00:37:02;;;;;;;670.40;631.30;;;;;;;19.42;100.00;97719.34;5030664;28;20021;-62
2021/06/22 00:39:27;;;;;;;634.47;597.83;;;;;;;19.42;100.00;97722.78;5033257;28;20043;-62
2021/06/22 00:41:53;;;;;;;815.47;767.88;;;;;;;19.39;100.00;97719.56;5018482;28;20025;-62
2021/06/22 00:44:18;;;;;;;628.40;592.15;;;;;;;19.37;100.00;97724.84;5032344;28;20395;-62
2021/06/22 00:46:43;;;;;;;606.08;571.20;;;;;;;19.37;100.00;97727.44;5034252;28;20037;-62
2021/06/22 00:49:09;;;;;;;564.83;533.00;;;;;;;19.34;100.00;97732.88;5015371;28;20026;-62
2021/06/22 00:51:35;;;;;;;588.83;555.33;;;;;;;19.35;100.00;97744.91;5030929;28;20649;-62
2021/06/22 00:54:00;;;;;;;586.15;552.03;;;;;;;19.33;100.00;97740.75;5026607;28;20383;-62
2021/06/22 00:56:30;;;;;;;698.47;658.13;;;;;;;19.36;100.00;97737.94;5019673;28;20046;-62
2021/06/22 00:58:55;;;;;;;613.58;577.83;;;;;;;19.30;100.00;97740.97;5030796;28;20085;-62
2021/06/22 01:01:21;;;;;;;769.78;724.67;;;;;;;19.27;100.00;97741.16;5028758;28;20299;-62
2021/06/22 01:03:46;;;;;;;810.25;761.70;;;;;;;19.26;100.00;97744.72;5032206;28;20044;-62
2021/06/22 01:06:12;;;;;;;820.88;771.83;;;;;;;19.27;100.00;97748.97;5030090;28;20026;-62
2021/06/22 01:08:37;;;;;;;791.75;745.08;;;;;;;19.30;100.00;97744.41;5027530;28;20013;-62
2021/06/22 01:11:03;;;;;;;782.47;736.65;;;;;;;19.32;100.00;97752.09;5032716;28;20013;-62
2021/06/22 01:13:29;;;;;;;783.72;737.80;;;;;;;19.35;100.00;97749.31;5036739;28;20033;-62
2021/06/22 01:15:54;;;;;;;785.83;739.75;;;;;;;19.33;100.00;97740.75;5036602;28;20052;-62
2021/06/22 01:18:20;;;;;;;783.90;737.05;;;;;;;19.32;100.00;97744.28;5031109;28;20025;-62
2021/06/22 01:20:45;;;;;;;756.55;712.10;;;;;;;19.31;100.00;97745.25;5029218;28;20086;-62
2021/06/22 01:23:11;;;;;;;786.50;739.72;;;;;;;19.31;100.00;97747.84;5032927;28;20098;-62
2021/06/22 01:25:37;;;;;;;816.45;768.28;;;;;;;19.26;100.00;97753.34;5031257;28;20030;-62
2021/06/22 01:28:03;;;;;;;818.22;769.13;;;;;;;19.30;100.00;97754.81;5019506;28;20137;-62
2021/06/22 01:30:30;;;;;;;810.65;761.80;;;;;;;19.26;100.00;97752.53;5030577;28;20047;-62
2021/06/22 01:32:57;;;;;;;803.92;755.67;;;;;;;19.23;100.00;97753.53;5033532;28;20033;-62
2021/06/22 01:35:24;;;;;;;814.53;765.05;;;;;;;19.18;100.00;97753.84;5032717;28;20029;-62
2021/06/22 01:38:02;;;;;;;507.63;477.20;;;;;;;19.28;100.00;97755.84;5033139;28;20124;-61
2021/06/22 01:40:28;;;;;;;328.15;311.05;;;;;;;19.28;100.00;97745.44;5028110;28;20287;-62
2021/06/22 01:42:58;;;;;;;443.30;419.35;;;;;;;19.26;100.00;97747.31;5033770;28;20033;-63
2021/06/22 01:45:24;;;;;;;319.42;301.88;;;;;;;19.23;100.00;97743.16;5028674;28;20038;-62
2021/06/22 01:47:49;;;;;;;344.77;327.05;;;;;;;19.17;100.00;97744.41;5031687;28;20407;-62
2021/06/22 01:50:16;;;;;;;390.88;370.58;;;;;;;19.26;100.00;97752.53;5031301;28;20451;-62
2021/06/22 01:52:42;;;;;;;448.13;424.02;;;;;;;19.21;100.00;97759.78;5031720;28;20022;-62
2021/06/22 01:57:52;;;;;;;508.33;480.48;;;;;;;19.18;100.00;97750.41;5028800;28;20056;-62
2021/06/22 02:00:18;;;;;;;530.67;501.15;;;;;;;19.14;100.00;97747.19;5029497;28;20371;-62
2021/06/22 02:02:44;;;;;;;534.70;504.67;;;;;;;19.12;100.00;97745.66;5032953;28;20109;-62
2021/06/22 02:05:10;;;;;;;550.35;519.70;;;;;;;19.18;100.00;97753.03;5030583;28;20041;-62
2021/06/22 02:07:36;;;;;;;565.22;533.47;;;;;;;19.23;100.00;97766.53;5029068;28;20026;-62
2021/06/22 02:10:01;;;;;;;609.08;574.55;;;;;;;19.25;100.00;97762.09;5029339;28;20025;-62
2021/06/22 02:12:26;;;;;;;624.40;588.63;;;;;;;19.29;100.00;97754.91;5029967;28;20030;-62
2021/06/22 02:14:52;;;;;;;656.80;618.83;;;;;;;19.30;100.00;97766.97;5029819;28;20037;-62
2021/06/22 02:17:17;;;;;;;634.30;598.25;;;;;;;19.25;100.00;97777.69;5032545;28;20027;-62
2021/06/22 02:19:43;;;;;;;653.60;615.50;;;;;;;19.27;100.00;97785.34;5036359;28;20029;-62
2021/06/22 02:22:08;;;;;;;656.05;618.53;;;;;;;19.26;100.00;97789.75;5013517;28;20036;-62
2021/06/22 02:24:33;;;;;;;699.88;659.00;;;;;;;19.30;100.00;97818.97;5036081;28;20084;-62
2021/06/22 02:26:59;;;;;;;725.70;683.17;;;;;;;19.25;100.00;97836.63;5031808;28;20371;-62
2021/06/22 02:29:24;;;;;;;747.88;703.30;;;;;;;19.45;100.00;97802.34;5030284;28;20021;-62
2021/06/22 02:31:50;;;;;;;752.75;708.55;;;;;;;19.53;100.00;97819.09;5030829;28;20029;-62
2021/06/22 02:34:15;;;;;;;768.50;722.95;;;;;;;19.52;100.00;97813.97;5030941;28;20291;-62
2021/06/22 02:36:41;;;;;;;774.33;728.45;;;;;;;19.52;100.00;97812.22;5031601;28;20029;-62
2021/06/22 02:39:06;;;;;;;790.97;742.15;;;;;;;19.51;100.00;97812.34;5035154;28;20037;-62
2021/06/22 02:41:32;;;;;;;786.28;736.17;;;;;;;19.54;99.78;97809.53;5028624;28;20424;-62
2021/06/22 02:43:57;;;;;;;805.60;755.13;;;;;;;19.52;100.00;97816.59;5028102;28;20044;-62
2021/06/22 02:46:22;;;;;;;793.08;743.15;;;;;;;19.53;100.00;97815.66;5026301;28;20021;-62
2021/06/22 02:48:48;;;;;;;801.38;750.20;;;;;;;19.54;99.92;97817.31;5027718;28;20378;-63
2021/06/22 02:51:13;;;;;;;792.15;744.47;;;;;;;19.55;99.27;97821.59;5034243;28;20029;-62
2021/06/22 02:53:39;;;;;;;784.53;736.95;;;;;;;19.56;99.62;97826.66;5030379;28;20363;-63
2021/06/22 02:56:04;;;;;;;800.03;751.05;;;;;;;19.59;99.42;97817.84;5037092;28;20028;-62
2021/06/22 02:58:30;;;;;;;806.88;756.72;;;;;;;19.57;99.18;97817.94;5028583;28;20033;-62
2021/06/22 03:00:55;;;;;;;795.22;746.58;;;;;;;19.63;98.34;97815.88;5030351;28;20373;-63
2021/06/22 03:03:21;;;;;;;805.60;756.85;;;;;;;19.62;98.46;97825.44;5030077;28;20362;-63
2021/06/22 03:05:46;;;;;;;804.38;756.15;;;;;;;19.62;98.81;97830.63;5029074;28;20072;-63
2021/06/22 03:08:11;;;;;;;805.45;757.25;;;;;;;19.59;98.98;97834.28;5026248;28;20309;-63
2021/06/22 03:10:37;;;;;;;796.70;749.78;;;;;;;19.53;99.16;97829.50;5032637;28;20033;-62
2021/06/22 03:13:02;;;;;;;792.55;744.58;;;;;;;19.57;99.38;97837.91;5031648;28;20446;-62
2021/06/22 03:15:28;;;;;;;800.63;752.25;;;;;;;19.69;97.55;97836.25;5030716;28;20026;-61
2021/06/22 03:17:54;;;;;;;804.67;757.00;;;;;;;19.69;97.80;97839.66;5031132;28;20092;-62
2021/06/22 03:20:20;;;;;;;806.65;758.30;;;;;;;19.69;97.52;97831.06;5027370;28;20381;-62
2021/06/22 03:22:46;;;;;;;796.55;749.00;;;;;;;19.68;97.42;97830.22;5032286;28;20030;-62
2021/06/22 03:25:12;;;;;;;794.60;746.67;;;;;;;19.66;97.67;97837.28;5029597;28;20302;-62
2021/06/22 03:27:39;;;;;;;826.42;775.92;;;;;;;19.64;97.66;97830.53;5029541;28;20022;-62
2021/06/22 03:30:06;;;;;;;807.88;760.03;;;;;;;19.66;96.94;97839.88;5013855;28;20033;-62
2021/06/22 03:32:32;;;;;;;819.50;770.50;;;;;;;19.71;95.41;97843.00;5027735;28;20053;-63
2021/06/22 03:34:58;;;;;;;815.35;766.15;;;;;;;19.79;93.36;97842.47;5026855;28;20120;-62
2021/06/22 03:37:23;;;;;;;805.80;757.22;;;;;;;19.76;94.22;97853.94;5028636;28;20108;-63
2021/06/22 03:39:48;;;;;;;756.90;710.70;;;;;;;19.73;94.08;97855.94;5032200;28;20358;-62
2021/06/22 03:42:14;;;;;;;808.50;760.22;;;;;;;19.75;93.55;97852.28;5016421;28;20043;-62
2021/06/22 03:44:40;;;;;;;806.95;758.35;;;;;;;19.75;92.66;97844.47;5030338;28;20042;-62
2021/06/22 03:47:05;;;;;;;804.10;756.00;;;;;;;19.72;92.91;97851.66;5029262;28;20366;-63
2021/06/22 03:49:31;;;;;;;818.47;769.03;;;;;;;19.68;93.35;97851.03;5030491;28;20056;-62
2021/06/22 03:51:56;;;;;;;815.58;766.45;;;;;;;19.72;90.82;97849.88;5025447;28;20379;-62
2021/06/22 03:54:22;;;;;;;813.08;764.88;;;;;;;19.72;91.00;97856.84;5025446;28;20065;-63
2021/06/22 03:56:47;;;;;;;805.70;757.08;;;;;;;19.73;nan;97861.13;5028662;28;20048;-63
2021/06/22 03:59:13;;;;;;;806.30;757.90;;;;;;;19.78;90.50;97864.22;5025667;28;20100;-63
2021/06/22 04:01:38;;;;;;;814.80;765.78;;;;;;;19.80;90.81;97870.16;5027638;28;20092;-64
2021/06/22 04:04:04;;;;;;;811.30;762.38;;;;;;;19.86;89.78;97874.97;5029417;28;20098;-63
2021/06/22 04:06:29;;;;;;;827.53;777.70;;;;;;;19.91;89.43;97878.06;5031746;28;20424;-62
2021/06/22 04:08:55;;;;;;;806.60;757.55;;;;;;;19.96;89.35;97887.22;5025071;28;20030;-63
2021/06/22 04:11:22;;;;;;;837.67;787.10;;;;;;;20.04;88.17;97897.94;5027149;28;20316;-63
2021/06/22 04:13:47;;;;;;;827.10;776.05;;;;;;;20.13;86.85;97916.44;5027319;28;20075;-63
2021/06/22 04:16:13;;;;;;;832.88;782.85;;;;;;;20.18;84.92;97906.56;5013156;28;20386;-63
2021/06/22 04:18:38;;;;;;;827.50;778.05;;;;;;;20.24;84.16;97921.78;5027669;28;20033;-63
2021/06/22 04:21:04;;;;;;;831.85;781.78;;;;;;;20.37;81.58;97918.22;5031658;28;20032;-63
2021/06/22 04:23:29;;;;;;;836.53;785.83;;;;;;;20.49;81.32;97921.75;5031574;28;20352;-62
2021/06/22 04:25:55;;;;;;;846.45;795.33;;;;;;;20.56;80.00;97925.56;5026770;28;20115;-63
2021/06/22 04:28:20;;;;;;;839.25;788.72;;;;;;;20.63;80.47;97931.19;5024580;28;20033;-63
2021/06/22 04:30:46;;;;;;;828.08;778.13;;;;;;;20.66;77.45;97931.81;5028956;28;20037;-63
2021/06/22 04:33:11;;;;;;;840.70;789.63;;;;;;;20.82;77.15;97928.94;5030603;28;20069;-62
2021/06/22 04:35:37;;;;;;;849.20;796.83;;;;;;;20.87;76.22;97932.88;5029990;28;20021;-62
2021/06/22 04:38:05;;;;;;;838.90;787.75;;;;;;;21.00;75.89;97927.63;5037990;28;20285;-62
2021/06/22 04:40:33;;;;;;;836.80;785.25;;;;;;;20.89;76.17;97931.00;5024485;28;20112;-62
2021/06/22 04:43:00;;;;;;;841.70;790.72;;;;;;;20.84;76.48;97933.09;5030175;28;20069;-62
2021/06/22 04:45:26;;;;;;;833.97;783.92;;;;;;;20.75;77.87;97941.56;5030315;28;20033;-62
2021/06/22 04:47:51;;;;;;;837.10;786.78;;;;;;;20.77;78.10;97941.47;5027932;28;20040;-62
2021/06/22 04:50:17;;;;;;;849.53;798.45;;;;;;;20.71;77.66;97944.53;5025376;28;20100;-62
2021/06/22 04:52:42;;;;;;;830.03;779.65;;;;;;;20.85;75.73;97952.16;5025581;28;20035;-62
2021/06/22 04:55:12;;;;;;;833.35;783.20;;;;;;;20.92;75.63;97955.97;5016421;28;20275;-62
2021/06/22 04:57:45;;;;;;;852.55;801.97;;;;;;;20.93;76.01;97950.69;5025045;28;20048;-63
2021/06/22 05:00:13;;;;;;;848.60;797.10;;;;;;;20.84;76.73;97961.75;5025868;28;20033;-62
2021/06/22 05:02:42;;;;;;;851.53;800.17;;;;;;;20.94;74.47;97962.78;5030445;28;20126;-62
2021/06/22 05:05:09;;;;;;;853.80;802.58;;;;;;;20.86;75.50;97957.28;5030450;28;20300;-62
2021/06/22 05:07:34;;;;;;;862.92;811.08;;;;;;;20.93;74.14;97968.91;5031015;28;20121;-62
2021/06/22 05:10:00;;;;;;;862.10;808.67;;;;;;;21.17;72.94;97966.38;5026929;28;20030;-62
2021/06/22 05:12:26;;;;;;;859.50;805.80;;;;;;;21.35;72.18;97970.22;5031222;28;20090;-62
2021/06/22 05:14:51;;;;;;;860.78;805.75;;;;;;;21.48;72.02;97970.16;5034687;28;20032;-62
2021/06/22 05:17:17;;;;;;;860.45;805.90;;;;;;;21.49;71.20;97982.28;5027077;28;20037;-62
2021/06/22 05:19:42;;;;;;;858.88;805.08;;;;;;;21.63;71.61;97989.09;5030648;28;20072;-62
2021/06/22 05:22:08;;;;;;;883.95;829.47;;;;;;;21.56;69.89;97980.84;5041661;28;20302;-62
2021/06/22 05:24:35;;;;;;;865.72;812.63;;;;;;;21.68;69.95;97986.97;5034286;28;20103;-64
2021/06/22 05:27:01;;;;;;;867.80;814.50;;;;;;;21.77;69.17;97984.50;5033515;28;20036;-66
2021/06/22 05:29:26;;;;;;;883.25;828.97;;;;;;;21.62;68.49;98003.06;5035186;28;20315;-66
2021/06/22 05:31:52;;;;;;;888.08;834.00;;;;;;;21.54;69.91;97981.94;5028474;28;20149;-67
2021/06/22 05:34:17;;;;;;;851.78;799.83;;;;;;;21.61;68.62;97999.63;5031507;28;20068;-66
2021/06/22 05:36:42;;;;;;;863.05;813.28;;;;;;;21.68;69.38;97982.59;5035375;28;20052;-67
2021/06/22 05:39:08;;;;;;;847.25;797.97;;;;;;;21.62;68.09;98000.47;5029094;28;20026;-65
2021/06/22 05:41:34;;;;;;;861.08;810.10;;;;;;;21.61;68.43;98002.22;5031206;28;20021;-66
2021/06/22 05:43:59;;;;;;;866.08;815.83;;;;;;;21.65;68.35;97995.84;5033854;28;20036;-66
2021/06/22 05:46:24;;;;;;;856.42;806.45;;;;;;;21.72;67.33;98007.50;5029951;28;20035;-68
2021/06/22 05:48:50;;;;;;;860.47;809.90;;;;;;;21.75;67.11;98015.09;5018588;28;20052;-67
2021/06/22 05:51:16;;;;;;;864.58;814.00;;;;;;;21.73;67.92;98006.53;5030891;28;20041;-66
2021/06/22 05:53:41;;;;;;;881.60;829.60;;;;;;;21.77;68.12;98007.13;5034174;28;20033;-66
2021/06/22 05:56:07;;;;;;;864.72;813.35;;;;;;;21.61;67.66;98004.84;5029139;28;20095;-65
2021/06/22 05:58:32;;;;;;;857.20;794.70;;;;;;;21.64;67.55;98006.41;5029845;28;20401;-67
2021/06/22 06:00:58;;;;;;;893.22;837.33;;;;;;;21.74;67.49;98020.41;5033447;28;20025;-67
2021/06/22 06:03:23;;;;;;;875.33;821.22;;;;;;;21.83;67.11;98020.59;5032300;28;20026;-68
2021/06/22 06:05:48;;;;;;;866.38;815.92;;;;;;;21.92;66.61;98037.38;5028180;28;20029;-68
2021/06/22 06:08:14;;;;;;;861.90;811.75;;;;;;;21.92;66.68;98036.50;5031662;28;20115;-69
2021/06/22 06:10:40;;;;;;;869.35;818.63;;;;;;;22.01;66.19;98046.28;5025344;28;20212;-68
2021/06/22 06:13:05;;;;;;;874.58;824.08;;;;;;;21.96;65.94;98046.63;5034065;28;20359;-70
2021/06/22 06:15:31;;;;;;;864.10;814.28;;;;;;;21.97;66.36;98056.16;5031945;28;20104;-68
2021/06/22 06:17:57;;;;;;;872.10;821.67;;;;;;;22.08;66.81;98053.56;5029010;28;20044;-70
2021/06/22 06:20:22;;;;;;;862.20;812.10;;;;;;;22.04;65.58;98064.34;5032562;28;20025;-70
2021/06/22 06:22:49;;;;;;;868.60;818.38;;;;;;;21.91;65.47;98053.94;5031499;28;20033;-69
2021/06/22 06:25:15;;;;;;;875.70;825.05;;;;;;;22.17;65.36;98058.09;5030712;28;20271;-70
2021/06/22 06:30:12;;;;;;;864.97;815.05;;;;;;;21.96;64.76;98069.28;5039263;28;20109;-69
2021/06/22 06:32:38;;;;;;;867.47;817.25;;;;;;;22.12;64.94;98069.81;5035131;28;20024;-70
2021/06/22 06:35:05;;;;;;;880.88;829.60;;;;;;;22.24;64.00;98066.28;5033188;28;20026;-70
2021/06/22 06:37:30;;;;;;;820.13;772.38;;;;;;;22.15;64.52;98078.25;5029952;28;20116;-70
2021/06/22 06:39:56;;;;;;;822.60;775.38;;;;;;;22.01;64.67;98062.81;5024366;28;20264;-70
2021/06/22 06:42:21;;;;;;;851.30;802.20;;;;;;;22.07;64.94;98061.50;5032134;28;20294;-69
2021/06/22 06:44:47;;;;;;;863.90;814.03;;;;;;;22.31;64.36;98059.66;5029219;28;20025;-70
2021/06/22 06:47:12;;;;;;;871.13;820.50;;;;;;;22.32;64.45;98064.75;5028849;28;20057;-70
2021/06/22 06:49:37;;;;;;;887.28;835.67;;;;;;;22.34;64.29;98059.44;5015287;28;20021;-69
2021/06/22 06:52:04;;;;;;;895.03;842.65;;;;;;;22.58;63.37;98054.09;5030569;28;20476;-68
2021/06/22 06:54:29;;;;;;;894.08;841.58;;;;;;;22.70;62.84;98064.47;5019874;28;20070;-67
2021/06/22 06:56:56;;;;;;;902.55;849.65;;;;;;;22.91;62.30;98063.78;5035414;28;20060;-68
2021/06/22 06:59:21;;;;;;;914.67;860.80;;;;;;;22.97;62.00;98071.97;5031785;28;20564;-68
2021/06/22 07:01:47;;;;;;;917.70;864.03;;;;;;;23.01;61.38;98065.53;5030457;28;20029;-67
2021/06/22 07:04:12;;;;;;;908.03;854.08;;;;;;;23.16;61.26;98073.97;5027139;28;20037;-68
2021/06/22 07:06:38;;;;;;;915.08;860.13;;;;;;;23.03;61.38;98065.44;5028937;28;20256;-69
2021/06/22 07:09:04;;;;;;;944.63;886.45;;;;;;;23.12;61.36;98069.94;5025335;28;20022;-68
2021/06/22 07:11:29;;;;;;;934.60;876.60;;;;;;;23.19;60.57;98076.34;5035333;28;20086;-70
2021/06/22 07:13:56;;;;;;;935.03;877.75;;;;;;;23.34;60.34;98069.88;5036107;28;20541;-70
2021/06/22 07:16:21;;;;;;;933.00;875.75;;;;;;;23.45;59.95;98069.91;5032006;28;20027;-71
2021/06/22 07:18:47;;;;;;;907.15;843.45;;;;;;;23.49;60.21;98076.56;5029669;28;20076;-71
2021/06/22 07:21:13;;;;;;;938.00;880.55;;;;;;;23.59;59.46;98068.81;5029512;28;20079;-71
2021/06/22 07:23:40;;;;;;;952.88;895.50;;;;;;;23.45;59.33;98082.16;5028565;28;20057;-71
2021/06/22 07:26:05;;;;;;;945.83;886.58;;;;;;;23.18;59.85;98077.28;5029780;28;20388;-71
2021/06/22 07:28:31;;;;;;;937.88;880.78;;;;;;;23.26;59.30;98080.13;5031114;28;20058;-71
2021/06/22 07:30:56;;;;;;;926.40;871.65;;;;;;;23.19;59.71;98073.72;5027334;28;20115;-71
2021/06/22 07:33:22;;;;;;;945.05;888.28;;;;;;;23.16;59.78;98074.81;5025561;28;20291;-71
2021/06/22 07:35:47;;;;;;;929.47;873.67;;;;;;;23.51;59.12;98066.78;5029459;28;20029;-70
2021/06/22 07:38:13;;;;;;;928.55;873.80;;;;;;;23.76;58.75;98075.28;5028170;28;20030;-71
2021/06/22 07:40:39;;;;;;;945.85;889.72;;;;;;;23.94;58.44;98085.06;5027635;28;20311;-70
2021/06/22 07:43:05;;;;;;;939.45;883.85;;;;;;;23.86;58.55;98074.41;5028322;28;20036;-67
2021/06/22 07:45:30;;;;;;;945.92;889.95;;;;;;;23.89;57.14;98075.97;5025886;28;20037;-69
2021/06/22 07:47:56;;;;;;;959.00;902.00;;;;;;;23.89;57.55;98070.72;5031923;28;20136;-69
2021/06/22 07:50:23;;;;;;;937.92;882.60;;;;;;;23.99;57.64;98076.84;5032412;28;20033;-70
2021/06/22 07:52:49;;;;;;;957.20;900.22;;;;;;;23.96;57.37;98074.50;5018458;28;20458;-70
2021/06/22 07:55:15;;;;;;;959.53;902.50;;;;;;;24.09;57.05;98070.75;5030420;28;20316;-68
2021/06/22 07:57:50;;;;;;;962.10;904.78;;;;;;;24.06;57.20;98075.41;5027728;28;20033;-69
2021/06/22 08:00:30;;;;;;;968.83;910.47;;;;;;;24.32;56.01;98068.00;5026733;28;20042;-69
2021/06/22 08:02:56;;;;;;;962.85;904.83;;;;;;;24.49;55.43;98068.25;5030460;28;20037;-69
2021/06/22 08:05:22;;;;;;;961.65;903.42;;;;;;;24.59;56.04;98073.56;5025373;28;20461;-68
2021/06/22 08:07:47;;;;;;;970.13;911.35;;;;;;;24.72;54.59;98066.31;5026161;28;20029;-68
2021/06/22 08:10:12;;;;;;;970.72;912.28;;;;;;;24.62;55.13;98069.81;5029064;28;20365;-68
2021/06/22 08:12:38;;;;;;;971.67;912.83;;;;;;;24.60;55.51;98069.97;5031229;28;20040;-68
2021/06/22 08:15:05;;;;;;;963.55;904.92;;;;;;;24.75;55.58;98084.38;5027103;28;20026;-69
2021/06/22 08:17:31;;;;;;;973.28;914.10;;;;;;;24.77;54.88;98077.25;5026215;28;20495;-68
2021/06/22 08:19:56;;;;;;;973.95;915.53;;;;;;;25.01;53.97;98082.19;5026129;28;20025;-68
2021/06/22 08:22:22;;;;;;;947.70;891.88;;;;;;;24.94;54.77;98078.44;5025104;28;20089;-69
2021/06/22 08:24:48;;;;;;;977.58;920.65;;;;;;;24.93;53.99;98079.41;5028972;28;20050;-68
2021/06/22 08:27:14;;;;;;;969.22;912.25;;;;;;;24.95;53.12;98087.97;5023899;28;20408;-68
2021/06/22 08:29:39;;;;;;;973.22;915.70;;;;;;;24.84;53.83;98085.41;5025289;28;20155;-69
2021/06/22 08:32:05;;;;;;;977.13;919.53;;;;;;;25.16;54.20;98087.91;5029529;28;20028;-68
2021/06/22 08:34:30;;;;;;;979.35;921.38;;;;;;;25.32;53.69;98082.97;5029583;28;20035;-69
2021/06/22 08:36:55;;;;;;;986.80;928.85;;;;;;;25.48;53.21;98089.38;5030223;28;20048;-69
2021/06/22 08:39:21;;;;;;;976.88;919.17;;;;;;;25.21;51.97;98094.41;5026588;28;20387;-68
2021/06/22 08:41:47;;;;;;;990.40;931.70;;;;;;;25.41;52.88;98083.00;5030294;28;20097;-69
2021/06/22 08:44:17;;;;;;;982.10;923.70;;;;;;;25.68;52.34;98084.16;5029252;28;20040;-67
2021/06/22 08:46:44;;;;;;;985.83;927.50;;;;;;;25.76;51.67;98079.06;5031662;28;20069;-69
2021/06/22 08:49:09;;;;;;;978.42;920.80;;;;;;;26.01;51.08;98073.28;5028069;28;20406;-69
2021/06/22 08:51:36;;;;;;;899.38;845.80;;;;;;;26.04;51.31;98080.03;5025381;28;20033;-69
2021/06/22 08:54:04;;;;;;;897.63;845.30;;;;;;;26.13;50.07;98074.78;5026580;28;20068;-69
2021/06/22 08:56:29;;;;;;;971.00;914.60;;;;;;;25.72;50.39;98073.25;5030023;28;20401;-69
2021/06/22 08:58:55;;;;;;;962.58;906.30;;;;;;;25.92;50.76;98074.09;5031854;28;20030;-68
2021/06/22 09:01:20;;;;;;;932.40;877.63;;;;;;;26.12;50.40;98078.38;5034484;28;20067;-68
2021/06/22 09:03:46;;;;;;;918.17;864.40;;;;;;;26.19;50.41;98086.50;5035623;28;20075;-68
2021/06/22 09:06:11;;;;;;;945.63;890.40;;;;;;;26.43;50.52;98081.69;5033153;28;20096;-68
2021/06/22 09:08:37;;;;;;;894.13;840.95;;;;;;;26.60;49.75;98085.38;5032832;28;20121;-68
2021/06/22 09:11:05;;;;;;;965.63;909.25;;;;;;;26.49;48.84;98089.00;5031963;28;20076;-69
2021/06/22 09:13:31;;;;;;;983.40;925.75;;;;;;;26.31;48.75;98095.94;5032482;28;20345;-69
2021/06/22 09:15:57;;;;;;;984.03;926.58;;;;;;;25.95;49.17;98094.00;5036063;28;20025;-70
2021/06/22 09:18:24;;;;;;;993.55;935.38;;;;;;;26.14;48.90;98094.81;5030080;28;20036;-69
2021/06/22 09:20:50;;;;;;;995.95;937.60;;;;;;;26.27;49.58;98097.19;5028828;28;20037;-69
2021/06/22 09:23:20;;;;;;;997.70;938.65;;;;;;;26.51;49.01;98086.22;5030752;28;20064;-69
2021/06/22 09:25:47;;;;;;;997.92;938.88;;;;;;;26.54;49.06;98085.94;5028771;28;20417;-69
2021/06/22 09:28:15;;;;;;;1012.83;952.88;;;;;;;26.69;49.34;98093.22;5029476;28;20071;-69
2021/06/22 09:30:59;;;;;;;854.13;802.08;;;;;;;27.07;48.38;98102.00;5032866;28;20020;-69
2021/06/22 09:33:34;;;;;;;900.88;847.33;;;;;;;27.17;47.47;98100.13;5031892;28;20022;-69
2021/06/22 09:36:04;;;;;;;1024.20;955.80;;;;;;;27.08;47.93;98096.59;5033781;28;20053;-68
2021/06/22 09:38:36;;;;;;;1016.38;948.67;;;;;;;27.07;47.98;98107.28;5032283;28;20076;-68
2021/06/22 09:41:29;;;;;;;990.60;931.92;;;;;;;27.09;47.05;98090.34;5034586;28;20036;-68
2021/06/22 09:44:08;;;;;;;1018.25;950.35;;;;;;;27.36;46.86;98097.44;5027108;28;20127;-68
2021/06/22 09:46:38;;;;;;;956.90;900.10;;;;;;;27.36;46.78;98086.06;5027165;28;20164;-68
2021/06/22 09:49:27;;;;;;;944.75;888.60;;;;;;;27.61;45.92;98090.66;5027436;28;20386;-68
2021/06/22 09:52:03;;;;;;;950.92;894.38;;;;;;;27.43;46.87;98076.59;5028860;28;20064;-68
2021/06/22 09:54:31;;;;;;;955.70;898.85;;;;;;;27.51;46.63;98082.81;5028784;28;20092;-68
2021/06/22 09:57:14;;;;;;;957.25;900.10;;;;;;;27.65;45.20;98077.03;5029816;28;20052;-70
2021/06/22 10:00:08;;;;;;;969.90;912.53;;;;;;;27.49;46.07;98081.31;5034001;28;20037;-69
2021/06/22 10:02:51;;;;;;;943.70;887.55;;;;;;;27.71;45.46;98075.59;5031742;28;20029;-69
2021/06/22 10:05:18;;;;;;;935.08;879.28;;;;;;;27.70;46.10;98084.47;5026758;28;20038;-69
2021/06/22 10:07:43;;;;;;;974.95;916.78;;;;;;;27.87;45.67;98086.31;5028049;28;20075;-69
2021/06/22 10:10:10;;;;;;;1042.15;973.35;;;;;;;27.86;45.33;98076.72;5030722;28;20125;-70
2021/06/22 10:12:40;;;;;;;939.22;882.88;;;;;;;27.80;44.91;98076.50;5029772;28;20021;-69
2021/06/22 10:15:07;;;;;;;567.50;531.53;;;;;;;28.00;44.74;98070.09;5029203;28;20037;-69
2021/06/22 10:17:33;;;;;;;854.35;801.78;;;;;;;28.03;44.22;98069.78;5031600;28;20045;-69
2021/06/22 10:20:01;;;;;;;837.25;785.88;;;;;;;28.26;43.87;98073.66;5026074;28;20433;-69
2021/06/22 10:22:31;;;;;;;810.15;760.28;;;;;;;28.26;43.40;98067.53;5028150;28;20085;-68
2021/06/22 10:24:59;;;;;;;835.17;783.97;;;;;;;28.08;43.87;98065.72;5033418;28;20420;-68
2021/06/22 10:27:25;;;;;;;844.25;792.45;;;;;;;28.29;43.50;98059.31;5034483;28;20068;-68
2021/06/22 10:29:53;;;;;;;847.08;794.95;;;;;;;28.12;43.53;98061.00;5035022;28;20021;-68
2021/06/22 10:32:20;;;;;;;861.10;808.67;;;;;;;28.20;43.41;98061.06;5028641;28;20044;-68
2021/06/22 10:34:54;;;;;;;874.35;820.90;;;;;;;28.43;42.81;98059.56;5029232;28;20200;-68
2021/06/22 10:37:50;;;;;;;879.33;825.60;;;;;;;28.58;42.27;98065.94;5031691;28;20033;-68
2021/06/22 10:40:23;;;;;;;883.00;829.42;;;;;;;28.63;42.89;98067.28;5031585;28;20064;-68
2021/06/22 10:42:52;;;;;;;892.50;838.10;;;;;;;28.56;42.87;98065.25;5029743;28;20514;-69
2021/06/22 10:45:19;;;;;;;884.13;829.70;;;;;;;28.58;42.26;98065.94;5028915;28;20279;-69
2021/06/22 10:47:45;;;;;;;903.47;848.38;;;;;;;28.83;42.38;98072.22;5030907;28;20086;-69
2021/06/22 10:50:19;;;;;;;956.22;898.15;;;;;;;28.83;41.79;98076.66;5028516;28;20064;-68
2021/06/22 10:52:49;;;;;;;1085.22;999.90;;;;;;;28.72;41.74;98074.28;5028027;28;20115;-69
2021/06/22 10:55:21;;;;;;;919.40;863.65;;;;;;;28.77;41.42;98064.09;5032300;28;20033;-68
2021/06/22 10:57:58;;;;;;;900.55;845.13;;;;;;;28.97;41.76;98060.25;5026280;28;20414;-69
2021/06/22 11:00:25;;;;;;;907.30;851.65;;;;;;;29.00;41.39;98054.63;5027610;28;20029;-69
2021/06/22 11:03:20;;;;;;;922.83;865.70;;;;;;;28.92;41.55;98060.72;5029493;28;20100;-69